createdAt,value
2018-12-17T00:04:59.719Z,101223.36
2018-12-17T00:10:04.875Z,101222.18
2018-12-17T00:15:08.528Z,101227.72
2018-12-17T00:20:11.915Z,101217.98
2018-12-17T00:25:15.513Z,101222.52
2018-12-17T00:30:18.790Z,101232.44
2018-12-17T00:35:22.110Z,101236.84
2018-12-17T00:40:25.448Z,101245.76
2018-12-17T00:45:28.671Z,101237.52
2018-12-17T00:50:31.888Z,101241.45
2018-12-17T00:55:35.156Z,101236.51
2018-12-17T01:00:38.392Z,101251.04
2018-12-17T01:05:41.550Z,101256.04
2018-12-17T01:10:44.834Z,101259.00
2018-12-17T01:15:48.064Z,101267.23
2018-12-17T01:20:51.845Z,101266.48
2018-12-17T01:25:55.157Z,101281.20
2018-12-17T01:30:58.376Z,101274.16
2018-12-17T01:36:01.785Z,101270.11
2018-12-17T01:41:05.588Z,101264.19
2018-12-17T01:46:08.837Z,101261.53
2018-12-17T01:51:12.022Z,101275.42
2018-12-17T01:56:15.399Z,101271.31
2018-12-17T02:01:18.627Z,101282.09
2018-12-17T02:06:21.858Z,101279.67
2018-12-17T02:11:25.154Z,101289.44
2018-12-17T02:16:28.818Z,101280.86
2018-12-17T02:21:32.060Z,101294.42
2018-12-17T02:26:35.583Z,101290.52
2018-12-17T02:31:38.771Z,101304.66
2018-12-17T02:36:42.386Z,101314.02
2018-12-17T02:41:45.683Z,101308.42
2018-12-17T02:46:49.000Z,101315.05
2018-12-17T02:51:52.261Z,101321.03
2018-12-17T02:56:57.862Z,101317.89
2018-12-17T03:02:01.579Z,101312.22
2018-12-17T03:07:04.865Z,101322.83
2018-12-17T03:12:08.170Z,101316.62
2018-12-17T03:17:11.597Z,101322.87
2018-12-17T03:22:14.893Z,101327.02
2018-12-17T03:27:18.176Z,101324.93
2018-12-17T03:32:21.806Z,101314.34
2018-12-17T03:37:25.350Z,101321.91
2018-12-17T03:42:28.607Z,101317.44
2018-12-17T03:47:31.931Z,101319.10
2018-12-17T03:52:35.174Z,101331.28
2018-12-17T03:57:38.538Z,101345.84
2018-12-17T04:02:41.795Z,101351.56
2018-12-17T04:07:45.658Z,101345.70
2018-12-17T04:12:49.020Z,101345.78
2018-12-17T04:17:52.290Z,101354.12
2018-12-17T04:22:55.471Z,101358.84
2018-12-17T04:27:58.648Z,101348.05
2018-12-17T04:33:01.908Z,101359.02
2018-12-17T04:38:05.111Z,101365.77
2018-12-17T04:43:08.416Z,101371.78
2018-12-17T04:48:11.705Z,101368.62
2018-12-17T04:53:15.238Z,101365.63
2018-12-17T04:58:19.599Z,101373.45
2018-12-17T05:03:22.877Z,101371.59
2018-12-17T05:08:26.102Z,101389.04
2018-12-17T05:13:29.472Z,101397.89
2018-12-17T05:18:33.003Z,101398.28
2018-12-17T05:23:36.447Z,101414.30
2018-12-17T05:28:39.732Z,101422.02
2018-12-17T05:33:43.062Z,101431.47
2018-12-17T05:38:46.316Z,101432.49
2018-12-17T05:43:49.494Z,101438.89
2018-12-17T05:48:52.750Z,101447.00
2018-12-17T05:53:57.148Z,101455.59
2018-12-17T05:59:00.427Z,101456.27
2018-12-17T06:04:04.042Z,101462.84
2018-12-17T06:09:07.668Z,101469.63
2018-12-17T06:14:10.933Z,101474.38
2018-12-17T06:19:15.575Z,101476.55
2018-12-17T06:24:18.892Z,101481.48
2018-12-17T06:29:22.381Z,101493.18
2018-12-17T06:34:26.453Z,101498.34
2018-12-17T06:39:32.524Z,101500.36
2018-12-17T06:44:36.375Z,101504.31
2018-12-17T06:49:39.891Z,101512.02
2018-12-17T06:54:43.510Z,101522.83
2018-12-17T06:59:46.763Z,101518.89
2018-12-17T07:04:50.395Z,101523.40
2018-12-17T07:09:53.755Z,101535.28
2018-12-17T07:14:58.037Z,101542.08
2018-12-17T07:20:01.408Z,101534.34
2018-12-17T07:25:05.738Z,101541.30
2018-12-17T07:30:09.038Z,101542.31
2018-12-17T07:35:12.375Z,101551.48
2018-12-17T07:40:15.513Z,101560.23
2018-12-17T07:45:18.773Z,101572.52
2018-12-17T07:50:22.179Z,101577.53
2018-12-17T07:55:25.400Z,101576.26
2018-12-17T08:00:28.634Z,101593.05
2018-12-17T08:05:32.409Z,101597.82
2018-12-17T08:10:35.631Z,101597.28
2018-12-17T08:15:39.606Z,101597.03
2018-12-17T08:20:42.905Z,101595.86
2018-12-17T08:25:46.217Z,101603.86
2018-12-17T08:30:49.405Z,101608.43
2018-12-17T08:35:52.569Z,101612.44
2018-12-17T08:40:56.228Z,101618.98
2018-12-17T08:45:59.435Z,101620.16
2018-12-17T08:51:02.696Z,101631.52
2018-12-17T08:56:06.115Z,101640.95
2018-12-17T09:01:09.251Z,101646.69
2018-12-17T09:06:12.440Z,101656.05
2018-12-17T09:11:15.592Z,101665.41
2018-12-17T09:16:18.891Z,101662.89
2018-12-17T09:21:22.107Z,101663.63
2018-12-17T09:26:25.256Z,101660.70
2018-12-17T09:31:28.487Z,101663.93
2018-12-17T09:36:31.717Z,101672.00
2018-12-17T09:41:35.047Z,101682.55
2018-12-17T09:46:38.474Z,101685.34
2018-12-17T09:51:41.660Z,101680.10
2018-12-17T09:56:44.876Z,101691.59
2018-12-17T10:01:48.108Z,101682.98
2018-12-17T10:06:52.014Z,101675.06
2018-12-17T10:11:55.833Z,101682.02
2018-12-17T10:16:58.985Z,101688.92
2018-12-17T10:22:02.102Z,101693.00
2018-12-17T10:27:05.295Z,101680.85
2018-12-17T10:32:08.561Z,101687.56
2018-12-17T10:37:11.773Z,101689.77
2018-12-17T10:42:15.199Z,101674.30
2018-12-17T10:47:18.360Z,101673.16
2018-12-17T10:52:22.555Z,101671.66
2018-12-17T10:57:25.748Z,101677.32
2018-12-17T11:02:28.999Z,101680.98
2018-12-17T11:07:32.231Z,101676.09
2018-12-17T11:12:35.614Z,101661.05
2018-12-17T11:17:39.000Z,101662.64
2018-12-17T11:22:42.461Z,101659.59
2018-12-17T11:27:45.919Z,101665.17
2018-12-17T11:32:49.188Z,101655.45
2018-12-17T11:37:52.457Z,101664.70
2018-12-17T11:42:55.737Z,101663.38
2018-12-17T11:47:58.867Z,101669.66
2018-12-17T11:53:02.136Z,101669.78
2018-12-17T11:58:11.673Z,101669.78
2018-12-17T12:03:16.161Z,101665.88
2018-12-17T12:08:19.500Z,101668.20
2018-12-17T12:13:23.004Z,101676.31
2018-12-17T12:18:26.284Z,101680.80
2018-12-17T12:23:29.805Z,101681.69
2018-12-17T12:28:33.005Z,101693.73
2018-12-17T12:33:36.233Z,101691.09
2018-12-17T12:38:39.517Z,101687.13
2018-12-17T12:43:42.876Z,101685.86
2018-12-17T12:48:46.069Z,101689.88
2018-12-17T12:53:49.275Z,101695.70
2018-12-17T12:58:52.569Z,101707.48
2018-12-17T13:03:55.968Z,101694.19
2018-12-17T13:08:59.284Z,101695.49
2018-12-17T13:14:06.623Z,101707.46
2018-12-17T13:19:09.823Z,101711.86
2018-12-17T13:24:13.044Z,101711.34
2018-12-17T13:29:16.541Z,101713.16
2018-12-17T13:34:19.721Z,101713.83
2018-12-17T13:39:23.253Z,101728.11
2018-12-17T13:44:26.425Z,101729.69
2018-12-17T13:49:29.667Z,101749.72
2018-12-17T13:54:33.011Z,101746.87
2018-12-17T13:59:36.235Z,101754.91
2018-12-17T14:04:39.430Z,101761.99
2018-12-17T14:09:42.953Z,101763.41
2018-12-17T14:14:46.239Z,101769.45
2018-12-17T14:19:49.511Z,101766.32
2018-12-17T14:24:52.699Z,101774.53
2018-12-17T14:29:56.307Z,101787.83
2018-12-17T14:34:59.679Z,101789.34
2018-12-17T14:40:06.368Z,101795.38
2018-12-17T14:45:09.863Z,101797.27
2018-12-17T14:50:13.192Z,101796.77
2018-12-17T14:55:16.502Z,101795.99
2018-12-17T15:00:19.849Z,101811.45
2018-12-17T15:05:23.250Z,101813.63
2018-12-17T15:10:26.612Z,101826.18
2018-12-17T15:15:29.786Z,101829.20
2018-12-17T15:20:33.017Z,101825.12
2018-12-17T15:25:36.260Z,101831.92
2018-12-17T15:30:39.713Z,101838.17
2018-12-17T15:35:43.349Z,101834.29
2018-12-17T15:40:46.597Z,101842.88
2018-12-17T15:45:50.233Z,101852.91
2018-12-17T15:50:53.444Z,101856.02
2018-12-17T15:55:56.652Z,101860.45
2018-12-17T16:00:59.885Z,101857.45
2018-12-17T16:06:08.222Z,101864.53
2018-12-17T16:11:11.509Z,101868.81
2018-12-17T16:16:14.726Z,101877.86
2018-12-17T16:21:18.049Z,101871.75
2018-12-17T16:26:21.843Z,101883.44
2018-12-17T16:31:25.372Z,101885.61
2018-12-17T16:36:28.723Z,101884.95
2018-12-17T16:41:31.976Z,101885.73
2018-12-17T16:46:35.859Z,101898.36
2018-12-17T16:51:39.237Z,101897.61
2018-12-17T16:56:42.448Z,101899.21
2018-12-17T17:01:45.745Z,101904.77
2018-12-17T17:06:49.277Z,101907.27
2018-12-17T17:11:52.444Z,101913.52
2018-12-17T17:16:56.245Z,101918.03
2018-12-17T17:21:59.391Z,101921.40
2018-12-17T17:27:02.666Z,101925.36
2018-12-17T17:32:11.578Z,101928.94
2018-12-17T17:37:11.705Z,101933.75
2018-12-17T17:42:14.961Z,101944.19
2018-12-17T17:47:18.179Z,101950.84
2018-12-17T17:52:21.356Z,101947.61
2018-12-17T17:57:24.640Z,101956.28
2018-12-17T18:02:28.087Z,101958.64
2018-12-17T18:07:31.353Z,101964.14
2018-12-17T18:12:37.911Z,101977.68
2018-12-17T18:17:41.140Z,101973.61
2018-12-17T18:22:44.346Z,101982.67
2018-12-17T18:27:48.582Z,101980.22
2018-12-17T18:32:51.938Z,101978.69
2018-12-17T18:37:55.136Z,101981.48
2018-12-17T18:43:03.960Z,101992.15
2018-12-17T18:48:08.182Z,101999.11
2018-12-17T18:53:11.395Z,101998.52
2018-12-17T18:58:14.663Z,102002.31
2018-12-17T19:03:18.028Z,102004.91
2018-12-17T19:08:21.292Z,102005.30
2018-12-17T19:13:24.539Z,102008.06
2018-12-17T19:18:29.072Z,102009.47
2018-12-17T19:23:32.561Z,102021.56
2018-12-17T19:28:35.844Z,102018.77
2018-12-17T19:33:39.482Z,102024.00
2018-12-17T19:38:42.777Z,102021.48
2018-12-17T19:43:46.120Z,102016.00
2018-12-17T19:48:49.999Z,102019.16
2018-12-17T19:53:53.490Z,102020.84
2018-12-17T19:58:56.974Z,102021.62
2018-12-17T20:04:00.293Z,102029.13
2018-12-17T20:09:05.134Z,102029.97
2018-12-17T20:14:08.445Z,102037.94
2018-12-17T20:19:11.670Z,102040.97
2018-12-17T20:24:17.326Z,102043.61
2018-12-17T20:29:26.000Z,102044.03
2018-12-17T20:34:32.195Z,102041.32
2018-12-17T20:39:35.423Z,102044.22
2018-12-17T20:44:38.510Z,102050.92
2018-12-17T20:49:41.765Z,102052.89
2018-12-17T20:54:44.886Z,102047.75
2018-12-17T20:59:48.181Z,102049.14
2018-12-17T21:04:51.342Z,102048.92
2018-12-17T21:09:55.670Z,102048.64
2018-12-17T21:15:02.258Z,102041.69
2018-12-17T21:20:08.105Z,102039.97
2018-12-17T21:25:13.881Z,102046.50
2018-12-17T21:30:17.286Z,102043.94
2018-12-17T21:35:20.633Z,102054.71
2018-12-17T21:40:23.846Z,102055.39
2018-12-17T21:45:27.142Z,102060.31
2018-12-17T21:50:30.408Z,102066.28
2018-12-17T21:55:34.832Z,102076.73
2018-12-17T22:00:40.226Z,102072.48
2018-12-17T22:05:43.848Z,102073.52
2018-12-17T22:10:47.113Z,102080.59
2018-12-17T22:15:50.280Z,102086.63
2018-12-17T22:20:53.577Z,102092.55
2018-12-17T22:25:56.753Z,102095.48
2018-12-17T22:31:00.024Z,102095.02
2018-12-17T22:36:03.224Z,102094.87
2018-12-17T22:41:06.386Z,102089.62
2018-12-17T22:46:09.653Z,102090.69
2018-12-17T22:51:12.864Z,102081.77
2018-12-17T22:56:15.987Z,102089.69
2018-12-17T23:01:19.159Z,102080.38
2018-12-17T23:06:22.319Z,102079.66
2018-12-17T23:11:36.798Z,102082.77
2018-12-17T23:16:51.234Z,102073.77
2018-12-17T23:21:55.129Z,102070.34
2018-12-17T23:26:58.515Z,102071.45
2018-12-17T23:32:01.781Z,102082.55
2018-12-17T23:37:05.004Z,102079.05
2018-12-17T23:42:08.170Z,102074.52
2018-12-17T23:47:11.359Z,102074.59
2018-12-17T23:52:15.555Z,102083.38
2018-12-17T23:57:18.717Z,102086.73
